createdAt,value
2022-07-30T00:01:47.326Z,22.20
2022-07-30T00:04:14.432Z,22.20
2022-07-30T00:06:41.479Z,22.20
2022-07-30T00:09:08.653Z,22.10
2022-07-30T00:11:36.013Z,22.10
2022-07-30T00:14:03.040Z,22.00
2022-07-30T00:16:30.070Z,22.00
2022-07-30T00:18:57.113Z,21.90
2022-07-30T00:21:36.286Z,21.90
2022-07-30T00:24:06.909Z,21.90
2022-07-30T00:26:34.170Z,21.90
2022-07-30T00:29:01.212Z,21.80
2022-07-30T00:31:29.279Z,21.80
2022-07-30T00:33:56.406Z,21.80
2022-07-30T00:36:23.859Z,21.80
2022-07-30T00:38:50.968Z,21.80
2022-07-30T00:41:18.075Z,21.70
2022-07-30T00:43:45.399Z,21.70
2022-07-30T00:46:14.785Z,21.70
2022-07-30T00:48:42.934Z,21.60
2022-07-30T00:51:10.747Z,21.60
2022-07-30T00:53:38.570Z,21.60
2022-07-30T00:56:06.129Z,21.60
2022-07-30T00:58:33.095Z,21.60
2022-07-30T01:01:00.325Z,21.50
2022-07-30T01:03:27.440Z,21.60
2022-07-30T01:05:54.627Z,21.50
2022-07-30T01:08:22.100Z,21.50
2022-07-30T01:10:49.070Z,21.50
2022-07-30T01:13:16.053Z,21.40
2022-07-30T01:15:43.648Z,21.40
2022-07-30T01:18:13.325Z,21.40
2022-07-30T01:21:02.295Z,21.40
2022-07-30T01:23:38.151Z,21.40
2022-07-30T01:26:11.964Z,21.40
2022-07-30T01:28:46.894Z,21.40
2022-07-30T01:31:15.144Z,21.40
2022-07-30T01:33:45.832Z,21.40
2022-07-30T01:36:16.408Z,21.40
2022-07-30T01:38:49.436Z,21.40
2022-07-30T01:41:18.760Z,21.40
2022-07-30T01:43:46.847Z,21.40
2022-07-30T01:46:16.658Z,21.30
2022-07-30T01:48:47.816Z,21.30
2022-07-30T01:51:18.206Z,21.20
2022-07-30T01:53:50.334Z,21.10
2022-07-30T01:56:24.721Z,21.10
2022-07-30T01:58:55.631Z,21.00
2022-07-30T02:01:27.541Z,21.00
2022-07-30T02:04:01.971Z,21.00
2022-07-30T02:06:46.947Z,20.90
2022-07-30T02:09:22.526Z,20.90
2022-07-30T02:12:32.852Z,20.80
2022-07-30T02:15:15.857Z,20.80
2022-07-30T02:18:01.838Z,20.70
2022-07-30T02:20:31.846Z,20.70
2022-07-30T02:23:10.479Z,20.70
2022-07-30T02:25:42.252Z,20.70
2022-07-30T02:28:13.013Z,20.70
2022-07-30T02:30:47.255Z,20.60
2022-07-30T02:33:17.242Z,20.70
2022-07-30T02:35:44.817Z,20.70
2022-07-30T02:38:13.686Z,20.70
2022-07-30T02:40:44.869Z,20.70
2022-07-30T02:43:14.485Z,20.60
2022-07-30T02:45:42.680Z,20.60
2022-07-30T02:48:11.758Z,20.50
2022-07-30T02:51:00.710Z,20.50
2022-07-30T02:53:28.529Z,20.40
2022-07-30T02:55:57.114Z,20.50
2022-07-30T02:58:26.129Z,20.50
2022-07-30T03:00:55.060Z,20.50
2022-07-30T03:03:28.935Z,20.50
2022-07-30T03:05:58.230Z,20.50
2022-07-30T03:08:27.791Z,20.50
2022-07-30T03:10:56.693Z,20.50
2022-07-30T03:13:25.644Z,20.50
2022-07-30T03:15:54.038Z,20.40
2022-07-30T03:18:23.443Z,20.40
2022-07-30T03:20:54.181Z,20.40
2022-07-30T03:23:23.848Z,20.40
2022-07-30T03:25:57.702Z,20.40
2022-07-30T03:28:26.555Z,20.30
2022-07-30T03:30:54.092Z,20.30
2022-07-30T03:33:21.877Z,20.30
2022-07-30T03:35:49.821Z,20.30
2022-07-30T03:38:18.060Z,20.20
2022-07-30T03:40:46.753Z,20.20
2022-07-30T03:43:32.249Z,20.20
2022-07-30T03:46:07.876Z,20.10
2022-07-30T03:48:39.643Z,20.10
2022-07-30T03:51:11.530Z,20.10
2022-07-30T03:53:41.051Z,20.10
2022-07-30T03:56:26.802Z,20.00
2022-07-30T03:59:16.421Z,20.00
2022-07-30T04:01:44.265Z,20.00
2022-07-30T04:04:26.780Z,20.00
2022-07-30T04:06:56.248Z,20.00
2022-07-30T04:09:23.451Z,19.90
2022-07-30T04:11:50.797Z,19.90
2022-07-30T04:14:24.615Z,20.00
2022-07-30T04:17:08.485Z,20.00
2022-07-30T04:19:46.611Z,20.10
2022-07-30T04:22:16.974Z,20.10
2022-07-30T04:24:45.050Z,20.10
2022-07-30T04:27:12.653Z,20.20
2022-07-30T04:29:40.851Z,20.30
2022-07-30T04:32:09.714Z,20.20
2022-07-30T04:34:55.980Z,20.30
2022-07-30T04:37:54.649Z,20.40
2022-07-30T04:40:21.971Z,20.50
2022-07-30T04:42:49.513Z,20.50
2022-07-30T04:45:16.804Z,20.50
2022-07-30T04:47:58.625Z,20.50
2022-07-30T04:50:48.968Z,20.50
2022-07-30T04:53:19.870Z,20.50
2022-07-30T04:55:53.796Z,20.50
2022-07-30T04:58:24.592Z,20.60
2022-07-30T05:00:55.366Z,20.80
2022-07-30T05:03:27.594Z,20.90
2022-07-30T05:05:57.594Z,21.10
2022-07-30T05:08:28.216Z,21.20
2022-07-30T05:10:58.528Z,21.40
2022-07-30T05:13:34.639Z,21.50
2022-07-30T05:16:07.636Z,21.90
2022-07-30T05:18:35.573Z,22.60
2022-07-30T05:21:02.544Z,23.50
2022-07-30T05:23:36.267Z,24.20
2022-07-30T05:26:28.412Z,24.90
2022-07-30T05:28:57.343Z,25.40
2022-07-30T05:31:46.544Z,26.00
2022-07-30T05:34:13.936Z,26.30
2022-07-30T05:36:45.089Z,26.70
2022-07-30T05:39:14.372Z,27.00
2022-07-30T05:41:54.152Z,27.30
2022-07-30T05:44:26.419Z,27.60
2022-07-30T05:46:53.530Z,27.90
2022-07-30T05:49:20.586Z,28.40
2022-07-30T05:51:47.596Z,28.90
2022-07-30T05:54:17.745Z,29.10
2022-07-30T05:57:16.869Z,29.50
2022-07-30T05:59:44.106Z,30.00
2022-07-30T06:02:18.400Z,30.30
2022-07-30T06:04:59.638Z,30.60
2022-07-30T06:07:27.193Z,30.90
2022-07-30T06:10:00.369Z,31.30
2022-07-30T06:12:29.497Z,31.70
2022-07-30T06:14:57.203Z,31.90
2022-07-30T06:17:51.995Z,32.00
2022-07-30T06:20:39.767Z,32.20
2022-07-30T06:23:29.884Z,32.50
2022-07-30T06:26:15.214Z,32.80
2022-07-30T06:28:42.823Z,33.20
2022-07-30T06:31:25.348Z,33.20
2022-07-30T06:33:52.677Z,33.10
2022-07-30T06:36:19.856Z,33.00
2022-07-30T06:39:01.002Z,33.00
2022-07-30T06:41:43.256Z,33.10
2022-07-30T06:44:13.829Z,33.20
2022-07-30T06:46:49.841Z,33.40
2022-07-30T06:49:20.118Z,33.60
2022-07-30T06:51:47.121Z,33.70
2022-07-30T06:54:14.444Z,33.60
2022-07-30T06:56:59.039Z,33.50
2022-07-30T06:59:27.673Z,33.60
2022-07-30T07:02:13.632Z,33.60
2022-07-30T07:04:59.100Z,33.70
2022-07-30T07:07:40.772Z,34.00
2022-07-30T07:10:11.245Z,34.30
2022-07-30T07:13:07.312Z,34.50
2022-07-30T07:15:36.998Z,34.40
2022-07-30T07:18:06.824Z,33.90
2022-07-30T07:20:39.397Z,33.50
2022-07-30T07:23:12.001Z,33.20
2022-07-30T07:25:41.458Z,32.70
2022-07-30T07:28:12.112Z,32.40
2022-07-30T07:30:43.469Z,32.20
2022-07-30T07:33:12.732Z,32.80
2022-07-30T07:35:49.227Z,33.30
2022-07-30T07:38:22.765Z,33.80
2022-07-30T07:40:51.253Z,34.20
2022-07-30T07:43:18.476Z,34.40
2022-07-30T07:45:48.409Z,34.60
2022-07-30T07:48:15.781Z,34.60
2022-07-30T07:50:54.984Z,33.80
2022-07-30T07:53:28.023Z,32.80
2022-07-30T07:55:57.292Z,32.50
2022-07-30T07:58:26.862Z,32.50
2022-07-30T08:00:58.090Z,32.30
2022-07-30T08:03:45.112Z,31.90
2022-07-30T08:06:32.022Z,32.10
2022-07-30T08:09:22.016Z,32.50
2022-07-30T08:12:06.411Z,33.00
2022-07-30T08:15:12.502Z,33.20
2022-07-30T08:18:11.382Z,33.10
2022-07-30T08:21:10.937Z,32.70
2022-07-30T08:23:42.391Z,32.20
2022-07-30T08:26:10.702Z,31.90
2022-07-30T08:28:37.712Z,31.70
2022-07-30T08:31:07.366Z,32.60
2022-07-30T08:33:34.438Z,33.80
2022-07-30T08:36:09.024Z,34.10
2022-07-30T08:38:38.035Z,34.20
2022-07-30T08:41:05.684Z,34.40
2022-07-30T08:43:34.982Z,34.90
2022-07-30T08:46:03.637Z,34.70
2022-07-30T08:51:22.464Z,33.70
2022-07-30T08:54:07.376Z,33.20
2022-07-30T08:56:35.517Z,32.70
2022-07-30T08:59:03.081Z,32.50
2022-07-30T09:01:30.107Z,32.30
2022-07-30T09:03:57.652Z,32.20
2022-07-30T09:06:27.355Z,32.10
2022-07-30T09:08:54.682Z,32.00
2022-07-30T09:11:22.182Z,31.90
2022-07-30T09:13:50.899Z,32.20
2022-07-30T09:16:22.236Z,32.60
2022-07-30T09:18:50.088Z,32.80
2022-07-30T09:21:23.380Z,33.40
2022-07-30T09:24:13.531Z,34.20
2022-07-30T09:27:01.363Z,35.00
2022-07-30T09:30:00.955Z,35.10
2022-07-30T09:32:53.837Z,35.80
2022-07-30T09:35:56.501Z,36.00
2022-07-30T09:38:50.471Z,36.10
2022-07-30T09:41:52.600Z,36.90
2022-07-30T09:44:25.345Z,37.50
2022-07-30T09:46:58.612Z,37.80
2022-07-30T09:49:30.805Z,37.60
2022-07-30T09:51:57.962Z,37.30
2022-07-30T09:54:51.150Z,36.90
2022-07-30T09:57:26.673Z,37.20
2022-07-30T10:00:23.437Z,36.80
2022-07-30T10:03:33.587Z,36.80
2022-07-30T10:06:38.391Z,37.30
2022-07-30T10:09:37.291Z,38.20
2022-07-30T10:12:10.743Z,38.30
2022-07-30T10:14:43.880Z,38.40
2022-07-30T10:17:13.374Z,38.70
2022-07-30T10:19:42.801Z,38.90
2022-07-30T10:22:28.793Z,39.30
2022-07-30T10:25:18.828Z,40.00
2022-07-30T10:28:06.964Z,40.50
2022-07-30T10:30:34.419Z,40.60
2022-07-30T10:33:02.283Z,40.70
2022-07-30T10:35:34.737Z,40.60
2022-07-30T10:38:13.986Z,40.40
2022-07-30T10:40:58.719Z,40.30
2022-07-30T10:43:41.235Z,40.40
2022-07-30T10:46:29.401Z,40.40
2022-07-30T10:49:07.489Z,40.50
2022-07-30T10:51:46.619Z,40.50
2022-07-30T10:54:39.707Z,40.60
2022-07-30T10:57:14.948Z,40.70
2022-07-30T10:59:50.334Z,40.80
2022-07-30T11:02:19.596Z,40.90
2022-07-30T11:04:47.552Z,40.80
2022-07-30T11:07:23.967Z,40.30
2022-07-30T11:10:05.178Z,39.80
2022-07-30T11:12:41.805Z,39.80
2022-07-30T11:15:18.729Z,40.00
2022-07-30T11:18:01.034Z,40.30
2022-07-30T11:20:32.720Z,40.50
2022-07-30T11:23:39.473Z,40.50
2022-07-30T11:26:07.720Z,40.60
2022-07-30T11:28:49.278Z,40.70
2022-07-30T11:31:55.746Z,40.90
2022-07-30T11:34:18.757Z,40.70
2022-07-30T11:37:18.620Z,40.80
2022-07-30T11:39:55.730Z,41.80
2022-07-30T11:42:31.442Z,42.50
2022-07-30T11:45:16.713Z,43.10
2022-07-30T11:47:52.136Z,43.80
2022-07-30T11:50:26.653Z,43.70
2022-07-30T11:52:56.758Z,43.30
2022-07-30T11:55:32.773Z,42.80
2022-07-30T11:58:01.721Z,42.40
2022-07-30T12:00:40.950Z,42.00
2022-07-30T12:03:16.806Z,42.00
2022-07-30T12:05:44.637Z,41.60
2022-07-30T12:08:35.961Z,41.30
2022-07-30T12:11:01.248Z,41.30
2022-07-30T12:13:42.883Z,41.20
2022-07-30T12:16:16.189Z,40.90
2022-07-30T12:18:44.350Z,40.50
2022-07-30T12:21:12.814Z,40.10
2022-07-30T12:23:43.244Z,39.70
2022-07-30T12:26:34.294Z,39.20
2022-07-30T12:29:06.631Z,39.30
2022-07-30T12:31:34.245Z,39.70
2022-07-30T12:34:05.709Z,39.30
2022-07-30T12:36:35.565Z,38.70
2022-07-30T12:39:04.977Z,37.80
2022-07-30T12:41:52.632Z,37.00
2022-07-30T12:44:41.036Z,36.50
2022-07-30T12:47:22.049Z,35.90
2022-07-30T12:49:50.376Z,35.50
2022-07-30T12:52:28.712Z,35.30
2022-07-30T12:55:07.337Z,35.30
2022-07-30T12:58:07.627Z,35.40
2022-07-30T13:00:44.660Z,35.30
2022-07-30T13:03:22.746Z,35.10
2022-07-30T13:05:55.250Z,35.00
2022-07-30T13:08:41.162Z,34.90
2022-07-30T13:11:08.169Z,34.90
2022-07-30T13:13:35.109Z,34.90
2022-07-30T13:16:05.128Z,35.10
2022-07-30T13:18:33.721Z,35.30
2022-07-30T13:21:02.366Z,35.40
2022-07-30T13:23:30.044Z,35.30
2022-07-30T13:25:57.917Z,35.10
2022-07-30T13:28:25.502Z,34.80
2022-07-30T13:30:53.055Z,34.90
2022-07-30T13:33:20.135Z,34.90
2022-07-30T13:35:47.169Z,34.80
2022-07-30T13:38:15.593Z,34.60
2022-07-30T13:40:42.679Z,34.40
2022-07-30T13:43:09.806Z,34.10
2022-07-30T13:45:37.064Z,34.00
2022-07-30T13:48:04.576Z,34.10
2022-07-30T13:50:31.572Z,34.10
2022-07-30T13:53:02.019Z,34.20
2022-07-30T13:55:29.493Z,34.30
2022-07-30T13:57:56.616Z,34.50
2022-07-30T14:00:24.372Z,34.70
2022-07-30T14:02:51.661Z,34.80
2022-07-30T14:05:18.709Z,34.90
2022-07-30T14:07:45.670Z,34.80
2022-07-30T14:10:12.676Z,34.90
2022-07-30T14:12:40.113Z,34.90
2022-07-30T14:15:09.364Z,34.70
2022-07-30T14:17:36.421Z,34.50
2022-07-30T14:20:04.488Z,34.40
2022-07-30T14:22:31.487Z,34.10
2022-07-30T14:25:00.156Z,34.00
2022-07-30T14:27:27.142Z,33.90
2022-07-30T14:29:54.127Z,34.00
2022-07-30T14:32:21.133Z,34.20
2022-07-30T14:34:50.604Z,34.20
2022-07-30T14:37:17.776Z,34.20
2022-07-30T14:39:44.892Z,34.20
2022-07-30T14:42:11.881Z,34.10
2022-07-30T14:44:38.956Z,33.90
2022-07-30T14:47:06.394Z,33.80
2022-07-30T14:49:33.708Z,33.70
2022-07-30T14:52:01.023Z,33.70
2022-07-30T14:54:28.084Z,33.60
2022-07-30T14:56:58.246Z,33.40
2022-07-30T14:59:27.595Z,33.50
2022-07-30T15:01:55.854Z,33.60
2022-07-30T15:04:23.291Z,33.60
2022-07-30T15:06:50.275Z,33.60
2022-07-30T15:09:17.240Z,33.70
2022-07-30T15:12:08.954Z,33.80
2022-07-30T15:14:31.591Z,33.70
2022-07-30T15:17:03.907Z,33.70
2022-07-30T15:19:32.332Z,33.80
2022-07-30T15:22:02.512Z,33.70
2022-07-30T15:24:30.209Z,33.60
2022-07-30T15:26:57.183Z,33.60
2022-07-30T15:29:27.208Z,33.60
2022-07-30T15:31:54.413Z,33.60
2022-07-30T15:34:21.522Z,33.50
2022-07-30T15:36:48.912Z,33.40
2022-07-30T15:39:15.913Z,33.40
2022-07-30T15:41:43.091Z,33.40
2022-07-30T15:44:10.043Z,33.40
2022-07-30T15:46:37.021Z,33.20
2022-07-30T15:49:04.051Z,33.00
2022-07-30T15:51:32.669Z,32.90
2022-07-30T15:53:59.840Z,33.00
2022-07-30T15:56:28.326Z,33.10
2022-07-30T15:58:57.933Z,33.20
2022-07-30T16:01:24.926Z,33.10
2022-07-30T16:03:54.729Z,33.00
2022-07-30T16:06:21.769Z,32.80
2022-07-30T16:08:48.776Z,32.80
2022-07-30T16:11:15.820Z,32.70
2022-07-30T16:13:43.017Z,32.60
2022-07-30T16:16:10.103Z,32.60
2022-07-30T16:18:37.135Z,32.60
2022-07-30T16:21:04.109Z,32.70
2022-07-30T16:23:36.558Z,32.70
2022-07-30T16:26:04.363Z,32.80
2022-07-30T16:28:31.884Z,32.70
2022-07-30T16:30:58.841Z,32.60
2022-07-30T16:33:25.832Z,32.40
2022-07-30T16:35:52.808Z,32.40
2022-07-30T16:38:20.785Z,32.40
2022-07-30T16:40:47.844Z,32.40
2022-07-30T16:43:16.262Z,32.40
2022-07-30T16:45:43.863Z,32.40
2022-07-30T16:48:11.506Z,32.30
2022-07-30T16:50:40.663Z,32.10
2022-07-30T16:53:13.540Z,32.10
2022-07-30T16:55:41.075Z,32.20
2022-07-30T16:58:08.078Z,32.20
2022-07-30T17:00:35.098Z,32.20
2022-07-30T17:03:02.372Z,32.20
2022-07-30T17:05:29.567Z,32.10
2022-07-30T17:07:56.573Z,32.10
2022-07-30T17:10:25.879Z,32.00
2022-07-30T17:12:53.942Z,31.80
2022-07-30T17:15:32.185Z,31.60
2022-07-30T17:18:01.161Z,31.50
2022-07-30T17:20:29.584Z,31.30
2022-07-30T17:22:56.744Z,31.20
2022-07-30T17:25:27.423Z,31.10
2022-07-30T17:27:58.602Z,30.90
2022-07-30T17:30:27.988Z,30.90
2022-07-30T17:32:55.061Z,30.80
2022-07-30T17:35:22.730Z,30.70
2022-07-30T17:37:49.849Z,30.60
2022-07-30T17:40:30.567Z,30.60
2022-07-30T17:43:07.518Z,30.50
2022-07-30T17:45:36.342Z,30.50
2022-07-30T17:48:04.871Z,30.40
2022-07-30T17:50:33.108Z,30.40
2022-07-30T17:53:03.254Z,30.40
2022-07-30T17:55:31.824Z,30.30
2022-07-30T17:57:58.924Z,30.30
2022-07-30T18:00:26.252Z,30.20
2022-07-30T18:02:53.222Z,30.10
2022-07-30T18:05:20.375Z,30.10
2022-07-30T18:07:47.429Z,30.10
2022-07-30T18:10:14.583Z,30.10
2022-07-30T18:12:49.022Z,30.00
2022-07-30T18:15:18.007Z,30.00
2022-07-30T18:17:45.264Z,29.90
2022-07-30T18:20:12.760Z,29.90
2022-07-30T18:22:40.534Z,29.80
2022-07-30T18:25:18.674Z,29.80
2022-07-30T18:27:47.464Z,29.70
2022-07-30T18:30:14.983Z,29.60
2022-07-30T18:32:42.000Z,29.50
2022-07-30T18:35:14.106Z,29.40
2022-07-30T18:37:42.834Z,29.30
2022-07-30T18:40:11.263Z,29.10
2022-07-30T18:42:38.234Z,29.00
2022-07-30T18:45:06.177Z,28.90
2022-07-30T18:47:33.213Z,28.80
2022-07-30T18:50:00.340Z,28.80
2022-07-30T18:52:27.347Z,28.60
2022-07-30T18:54:54.298Z,28.50
2022-07-30T18:57:21.377Z,28.40
2022-07-30T18:59:48.402Z,28.30
2022-07-30T19:02:15.359Z,28.20
2022-07-30T19:04:42.366Z,28.20
2022-07-30T19:07:09.576Z,28.10
2022-07-30T19:09:37.099Z,28.00
2022-07-30T19:12:05.487Z,27.90
2022-07-30T19:14:32.819Z,27.90
2022-07-30T19:17:00.025Z,27.70
2022-07-30T19:19:27.389Z,27.70
2022-07-30T19:21:54.705Z,27.60
2022-07-30T19:24:21.674Z,27.50
2022-07-30T19:26:48.969Z,27.50
2022-07-30T19:29:16.036Z,27.40
2022-07-30T19:31:43.117Z,27.30
2022-07-30T19:34:11.186Z,27.30
2022-07-30T19:36:39.647Z,27.20
2022-07-30T19:39:07.376Z,27.10
2022-07-30T19:41:40.655Z,27.10
2022-07-30T19:44:09.446Z,27.00
2022-07-30T19:46:37.749Z,27.00
2022-07-30T19:49:06.734Z,26.90
2022-07-30T19:52:10.768Z,26.90
2022-07-30T19:54:21.030Z,26.90
2022-07-30T19:56:48.849Z,26.80
2022-07-30T19:59:16.156Z,26.80
2022-07-30T20:01:44.101Z,26.70
2022-07-30T20:04:14.789Z,26.70
2022-07-30T20:06:45.983Z,26.60
2022-07-30T20:09:15.179Z,26.50
2022-07-30T20:11:43.390Z,26.40
2022-07-30T20:14:10.473Z,26.40
2022-07-30T20:16:37.790Z,26.40
2022-07-30T20:19:05.449Z,26.30
2022-07-30T20:21:56.591Z,26.30
2022-07-30T20:24:20.974Z,26.30
2022-07-30T20:26:48.113Z,26.20
2022-07-30T20:29:15.695Z,26.20
2022-07-30T20:31:46.081Z,26.20
2022-07-30T20:34:17.837Z,26.20
2022-07-30T20:36:45.140Z,26.20
2022-07-30T20:39:13.544Z,26.20
2022-07-30T20:41:45.427Z,26.20
2022-07-30T20:44:23.153Z,26.20
2022-07-30T20:46:52.753Z,26.20
2022-07-30T20:49:24.099Z,26.10
2022-07-30T20:51:59.015Z,26.20
2022-07-30T20:54:26.962Z,26.20
2022-07-30T20:56:54.103Z,26.20
2022-07-30T20:59:23.739Z,26.20
2022-07-30T21:01:50.955Z,26.20
2022-07-30T21:04:23.840Z,26.20
2022-07-30T21:06:52.907Z,26.20
2022-07-30T21:09:20.533Z,26.10
2022-07-30T21:11:50.381Z,26.10
2022-07-30T21:14:27.758Z,26.10
2022-07-30T21:16:56.296Z,26.00
2022-07-30T21:19:23.359Z,25.90
2022-07-30T21:21:50.684Z,25.90
2022-07-30T21:24:19.417Z,25.90
2022-07-30T21:26:48.955Z,25.90
2022-07-30T21:29:17.267Z,25.90
2022-07-30T21:32:00.605Z,25.80
2022-07-30T21:34:35.930Z,25.80
2022-07-30T21:37:07.601Z,25.70
2022-07-30T21:39:39.579Z,25.70
2022-07-30T21:42:08.803Z,25.60
2022-07-30T21:44:37.689Z,25.60
2022-07-30T21:49:52.717Z,25.40
2022-07-30T21:52:20.194Z,25.40
2022-07-30T21:54:50.518Z,25.40
2022-07-30T21:57:26.136Z,25.30
2022-07-30T21:59:55.062Z,25.40
2022-07-30T22:02:23.783Z,25.40
2022-07-30T22:04:51.661Z,25.30
2022-07-30T22:07:18.689Z,25.30
2022-07-30T22:09:49.140Z,25.30
2022-07-30T22:12:18.358Z,25.20
2022-07-30T22:14:48.740Z,25.20
2022-07-30T22:17:23.786Z,25.20
2022-07-30T22:20:05.045Z,25.20
2022-07-30T22:22:36.481Z,25.20
2022-07-30T22:25:06.760Z,25.10
2022-07-30T22:27:39.589Z,25.10
2022-07-30T22:30:30.554Z,25.10
2022-07-30T22:33:15.560Z,25.10
2022-07-30T22:35:46.889Z,25.10
2022-07-30T22:38:19.651Z,25.10
2022-07-30T22:40:47.419Z,25.00
2022-07-30T22:43:16.485Z,25.00
2022-07-30T22:45:48.730Z,25.00
2022-07-30T22:48:16.913Z,25.00
2022-07-30T22:50:43.904Z,24.90
2022-07-30T22:53:56.911Z,24.90
2022-07-30T22:55:58.897Z,24.80
2022-07-30T22:58:26.703Z,24.80
2022-07-30T23:00:54.313Z,24.70
2022-07-30T23:03:21.373Z,24.70
2022-07-30T23:05:55.913Z,24.70
2022-07-30T23:08:29.425Z,24.70
2022-07-30T23:10:59.710Z,24.70
2022-07-30T23:12:32.893Z,25.50
2022-07-30T23:13:27.595Z,24.60
2022-07-30T23:15:54.526Z,24.60
2022-07-30T23:18:21.473Z,24.60
2022-07-30T23:20:48.487Z,24.60
2022-07-30T23:23:15.482Z,24.60
2022-07-30T23:25:42.471Z,24.50
2022-07-30T23:28:09.415Z,24.50
2022-07-30T23:30:36.378Z,24.50
2022-07-30T23:33:03.463Z,24.40
2022-07-30T23:35:31.022Z,24.30
2022-07-30T23:37:58.039Z,24.30
2022-07-30T23:40:24.982Z,24.30
2022-07-30T23:42:52.581Z,24.20
2022-07-30T23:45:20.083Z,24.20
2022-07-30T23:47:52.960Z,24.20
2022-07-30T23:50:31.914Z,24.10
2022-07-30T23:52:59.858Z,24.10
2022-07-30T23:55:27.393Z,24.00
2022-07-30T23:57:54.833Z,24.00
